8.53C
пасмурно
пасмурно
Дата и времяТемператураДавление, мм рт.ст.Влажность, %Осадки
МинимумМаксимум
16.08.2022 23:008.72C9.22C75788небольшой дождь
17.08.2022 02:008.68C8.94C75888пасмурно
17.08.2022 05:007.48C7.48C75987пасмурно
17.08.2022 08:008.97C8.97C75975пасмурно
17.08.2022 11:0010.2C10.2C76064пасмурно
17.08.2022 14:0010.69C10.69C76062небольшой дождь
17.08.2022 17:009.15C9.15C76175небольшой дождь
17.08.2022 20:006.87C6.87C76188небольшой дождь
17.08.2022 23:006.2C6.2C76291небольшой дождь
18.08.2022 02:006.4C6.4C76293пасмурно
18.08.2022 05:006.76C6.76C76293пасмурно
18.08.2022 08:008.02C8.02C76387пасмурно
18.08.2022 11:0011.16C11.16C76474пасмурно
18.08.2022 14:0013.26C13.26C76470пасмурно
18.08.2022 17:0013.78C13.78C76473пасмурно
18.08.2022 20:0012C12C76383облачно с прояснениями
18.08.2022 23:0012.14C12.14C76381небольшой дождь
19.08.2022 02:0011.28C11.28C76384пасмурно
19.08.2022 05:0010.15C10.15C76372пасмурно
19.08.2022 08:0011.82C11.82C76460облачно с прояснениями
19.08.2022 11:0014.64C14.64C76448переменная облачность
19.08.2022 14:0016.07C16.07C76442ясно
19.08.2022 17:0015.76C15.76C76444ясно
19.08.2022 20:0011C11C76463ясно
19.08.2022 23:008.93C8.93C76468ясно
20.08.2022 02:007.94C7.94C76471облачно с прояснениями
20.08.2022 05:007.21C7.21C76473облачно с прояснениями
20.08.2022 08:0012.63C12.63C76454небольшая облачность
20.08.2022 11:0016.41C16.41C76353небольшая облачность
20.08.2022 14:0016.41C16.41C76267облачно с прояснениями
20.08.2022 17:0015.81C15.81C76272облачно с прояснениями
20.08.2022 20:0012.12C12.12C76193небольшой дождь
20.08.2022 23:0011.95C11.95C76098небольшой дождь
21.08.2022 02:0011.22C11.22C76092небольшой дождь
21.08.2022 05:008.2C8.2C76188пасмурно
21.08.2022 08:007.81C7.81C76288пасмурно
21.08.2022 11:007.29C7.29C76286небольшой дождь
21.08.2022 14:007.04C7.04C76482пасмурно
21.08.2022 17:008.33C8.33C76577пасмурно
21.08.2022 20:009.06C9.06C76570пасмурно
Дата и время наблюдения: 16.08.2022 21:19:25